createdAt,value
2023-04-12T00:03:08.469Z,98936.06
2023-04-12T00:06:14.429Z,98965.69
2023-04-12T00:09:19.161Z,98950.03
2023-04-12T00:12:24.047Z,98954.94
2023-04-12T00:15:29.141Z,98945.53
2023-04-12T00:18:33.638Z,98968.03
2023-04-12T00:21:37.743Z,98974.88
2023-04-12T00:24:42.543Z,98971.59
2023-04-12T00:27:47.042Z,98980.91
2023-04-12T00:30:51.672Z,98980.59
2023-04-12T00:33:55.797Z,98980.25
2023-04-12T00:37:02.477Z,98964.69
2023-04-12T00:40:10.808Z,98991.00
2023-04-12T00:43:19.596Z,98999.50
2023-04-12T00:46:23.707Z,99000.19
2023-04-12T00:49:31.539Z,98986.50
2023-04-12T00:52:35.601Z,99001.34
2023-04-12T00:55:40.110Z,99001.69
2023-04-12T00:58:44.532Z,99012.53
2023-04-12T01:01:48.416Z,99007.13
2023-04-12T01:04:54.276Z,99014.91
2023-04-12T01:08:16.802Z,99006.25
2023-04-12T01:11:43.778Z,99018.88
2023-04-12T01:15:04.126Z,99026.03
2023-04-12T01:18:18.566Z,99011.91
2023-04-12T01:21:54.426Z,99026.88
2023-04-12T01:25:25.358Z,99039.78
2023-04-12T01:28:35.798Z,99031.00
2023-04-12T01:31:42.990Z,99028.97
2023-04-12T01:34:47.520Z,99043.03
2023-04-12T01:37:51.819Z,99027.25
2023-04-12T01:40:56.749Z,99047.38
2023-04-12T01:44:00.645Z,99043.16
2023-04-12T01:47:05.223Z,99043.38
2023-04-12T01:50:35.331Z,99047.84
2023-04-12T01:54:00.358Z,99056.38
2023-04-12T01:57:06.111Z,99062.84
2023-04-12T02:00:12.408Z,99070.03
2023-04-12T02:03:22.725Z,99056.22
2023-04-12T02:06:28.625Z,99020.75
2023-04-12T02:09:39.147Z,99059.38
2023-04-12T02:12:43.718Z,99064.66
2023-04-12T02:15:50.459Z,99060.16
2023-04-12T02:18:55.020Z,99069.31
2023-04-12T02:21:59.985Z,99074.94
2023-04-12T02:25:09.944Z,99058.00
2023-04-12T02:28:15.940Z,99069.66
2023-04-12T02:31:21.101Z,99073.38
2023-04-12T02:34:26.662Z,99063.91
2023-04-12T02:37:39.405Z,99074.38
2023-04-12T02:40:44.517Z,99064.31
2023-04-12T02:43:52.647Z,99066.16
2023-04-12T02:46:58.296Z,99072.13
2023-04-12T02:50:03.216Z,99069.16
2023-04-12T02:53:11.660Z,99078.09
2023-04-12T02:56:19.757Z,99081.03
2023-04-12T02:59:30.305Z,99063.19
2023-04-12T03:02:59.724Z,99075.28
2023-04-12T03:06:07.299Z,99068.78
2023-04-12T03:09:14.073Z,99070.84
2023-04-12T03:12:20.953Z,99074.13
2023-04-12T03:15:44.750Z,99084.47
2023-04-12T03:18:52.444Z,99051.06
2023-04-12T03:22:00.897Z,99058.63
2023-04-12T03:25:10.636Z,99040.38
2023-04-12T03:28:19.271Z,99083.19
2023-04-12T03:31:28.051Z,99054.72
2023-04-12T03:34:35.927Z,99074.72
2023-04-12T03:37:48.919Z,99091.94
2023-04-12T03:40:54.495Z,99058.91
2023-04-12T03:44:06.292Z,99090.66
2023-04-12T03:47:12.250Z,99099.25
2023-04-12T03:50:16.396Z,99094.34
2023-04-12T03:53:25.743Z,99092.09
2023-04-12T03:56:30.821Z,99097.59
2023-04-12T03:59:40.117Z,99103.34
2023-04-12T04:02:48.164Z,99089.25
2023-04-12T04:05:54.312Z,99047.78
2023-04-12T04:08:59.257Z,99068.50
2023-04-12T04:12:04.430Z,99102.06
2023-04-12T04:15:11.745Z,99098.34
2023-04-12T04:18:16.721Z,99100.06
2023-04-12T04:21:23.221Z,99108.78
2023-04-12T04:24:32.715Z,99099.28
2023-04-12T04:27:39.226Z,99100.06
2023-04-12T04:30:46.989Z,99073.97
2023-04-12T04:33:53.042Z,99100.72
2023-04-12T04:37:04.470Z,99098.09
2023-04-12T04:40:18.354Z,99090.50
2023-04-12T04:43:23.322Z,99098.78
2023-04-12T04:46:33.314Z,99094.25
2023-04-12T04:49:38.770Z,99098.31
2023-04-12T04:52:56.852Z,99099.75
2023-04-12T04:56:02.309Z,99099.13
2023-04-12T04:59:11.240Z,99105.31
2023-04-12T05:02:17.556Z,99129.34
2023-04-12T05:05:26.817Z,99113.91
2023-04-12T05:08:45.628Z,99119.84
2023-04-12T05:12:12.644Z,99106.88
2023-04-12T05:15:23.154Z,99113.72
2023-04-12T05:18:28.001Z,99097.84
2023-04-12T05:21:33.877Z,99110.25
2023-04-12T05:24:47.690Z,99116.75
2023-04-12T05:27:53.403Z,99110.25
2023-04-12T05:30:58.035Z,99119.91
2023-04-12T05:34:14.421Z,99108.59
2023-04-12T05:37:29.443Z,99118.16
2023-04-12T05:40:33.481Z,99132.69
2023-04-12T05:43:38.598Z,99120.84
2023-04-12T05:46:45.306Z,99134.69
2023-04-12T05:49:50.583Z,99128.25
2023-04-12T05:52:56.404Z,99155.41
2023-04-12T05:56:05.742Z,99148.19
2023-04-12T05:59:12.545Z,99143.72
2023-04-12T06:02:17.404Z,99133.97
2023-04-12T06:05:22.227Z,99142.66
2023-04-12T06:08:30.140Z,99137.59
2023-04-12T06:11:34.772Z,99148.00
2023-04-12T06:14:39.932Z,99146.19
2023-04-12T06:17:46.175Z,99157.69
2023-04-12T06:20:50.859Z,99148.47
2023-04-12T06:23:55.881Z,99154.59
2023-04-12T06:27:00.371Z,99169.66
2023-04-12T06:30:05.451Z,99158.25
2023-04-12T06:33:13.290Z,99174.56
2023-04-12T06:36:18.244Z,99173.31
2023-04-12T06:39:22.938Z,99119.47
2023-04-12T06:42:27.377Z,99147.19
2023-04-12T06:45:33.047Z,99176.22
2023-04-12T06:48:38.692Z,99189.66
2023-04-12T06:51:43.206Z,99179.44
2023-04-12T06:54:47.885Z,99182.19
2023-04-12T06:57:53.005Z,99183.06
2023-04-12T07:01:09.289Z,99187.50
2023-04-12T07:04:14.921Z,99184.88
2023-04-12T07:07:22.404Z,99195.28
2023-04-12T07:10:27.155Z,99195.00
2023-04-12T07:13:32.092Z,99179.34
2023-04-12T07:16:36.452Z,99211.16
2023-04-12T07:19:42.896Z,99179.94
2023-04-12T07:22:46.979Z,99203.56
2023-04-12T07:25:51.270Z,99183.69
2023-04-12T07:28:55.930Z,99209.16
2023-04-12T07:32:03.142Z,99207.44
2023-04-12T07:35:07.946Z,99223.53
2023-04-12T07:38:12.777Z,99224.41
2023-04-12T07:41:19.244Z,99220.25
2023-04-12T07:44:23.693Z,99202.94
2023-04-12T07:47:27.975Z,99229.81
2023-04-12T07:50:32.588Z,99221.25
2023-04-12T07:53:38.736Z,99234.97
2023-04-12T07:56:43.153Z,99225.63
2023-04-12T07:59:47.699Z,99241.97
2023-04-12T08:02:52.459Z,99243.66
2023-04-12T08:05:57.347Z,99230.81
2023-04-12T08:09:02.082Z,99249.47
2023-04-12T08:12:06.607Z,99241.75
2023-04-12T08:15:11.153Z,99257.75
2023-04-12T08:18:15.959Z,99251.66
2023-04-12T08:21:20.074Z,99268.25
2023-04-12T08:24:24.691Z,99277.19
2023-04-12T08:27:31.466Z,99212.03
2023-04-12T08:30:36.669Z,99282.66
2023-04-12T08:33:41.382Z,99280.44
2023-04-12T08:36:46.122Z,99272.63
2023-04-12T08:39:51.770Z,99217.13
2023-04-12T08:42:57.551Z,99256.22
2023-04-12T08:46:07.021Z,99274.97
2023-04-12T08:49:12.508Z,99288.03
2023-04-12T08:52:16.472Z,99267.94
2023-04-12T08:55:21.293Z,99275.00
2023-04-12T08:58:26.702Z,99273.34
2023-04-12T09:01:31.270Z,99290.84
2023-04-12T09:04:35.868Z,99266.22
2023-04-12T09:07:41.061Z,99299.78
2023-04-12T09:10:45.445Z,99303.53
2023-04-12T09:13:50.756Z,99302.47
2023-04-12T09:16:55.261Z,99301.09
2023-04-12T09:20:00.247Z,99284.22
2023-04-12T09:23:25.578Z,99323.97
2023-04-12T09:26:30.541Z,99317.69
2023-04-12T09:29:35.477Z,99308.56
2023-04-12T09:32:40.681Z,99305.84
2023-04-12T09:35:45.137Z,99286.59
2023-04-12T09:39:10.305Z,99347.47
2023-04-12T09:42:31.651Z,99367.16
2023-04-12T09:45:39.757Z,99370.16
2023-04-12T09:48:52.015Z,99361.50
2023-04-12T09:51:58.893Z,99335.63
2023-04-12T09:55:06.323Z,99372.06
2023-04-12T09:58:12.714Z,99372.75
2023-04-12T10:01:17.660Z,99385.97
2023-04-12T10:04:22.474Z,99387.00
2023-04-12T10:07:28.135Z,99373.28
2023-04-12T10:10:34.095Z,99383.47
2023-04-12T10:13:38.846Z,99397.66
2023-04-12T10:16:44.756Z,99404.69
2023-04-12T10:19:49.762Z,99405.47
2023-04-12T10:22:55.077Z,99380.16
2023-04-12T10:26:05.506Z,99385.69
2023-04-12T10:29:35.368Z,99417.47
2023-04-12T10:32:40.540Z,99398.66
2023-04-12T10:36:09.460Z,99422.78
2023-04-12T10:39:15.622Z,99414.50
2023-04-12T10:42:26.119Z,99437.94
2023-04-12T10:45:34.839Z,99444.03
2023-04-12T10:49:00.164Z,99448.88
2023-04-12T10:52:14.769Z,99462.38
2023-04-12T10:55:39.259Z,99446.19
2023-04-12T10:58:50.926Z,99472.97
2023-04-12T11:02:16.691Z,99463.50
2023-04-12T11:05:28.251Z,99465.47
2023-04-12T11:08:42.094Z,99463.00
2023-04-12T11:12:10.794Z,99479.44
2023-04-12T11:15:15.717Z,99474.50
2023-04-12T11:18:29.061Z,99465.19
2023-04-12T11:21:35.070Z,99485.97
2023-04-12T11:24:47.638Z,99464.31
2023-04-12T11:27:53.716Z,99487.84
2023-04-12T11:31:00.625Z,99442.75
2023-04-12T11:34:05.172Z,99489.34
2023-04-12T11:37:10.751Z,99481.44
2023-04-12T11:40:16.194Z,99496.03
2023-04-12T11:43:23.208Z,99471.72
2023-04-12T11:46:29.464Z,99476.13
2023-04-12T11:49:34.646Z,99477.88
2023-04-12T11:52:40.101Z,99459.00
2023-04-12T11:55:50.694Z,99484.31
2023-04-12T11:58:55.289Z,99499.72
2023-04-12T12:02:01.528Z,99476.38
2023-04-12T12:05:08.780Z,99486.84
2023-04-12T12:08:14.351Z,99488.41
2023-04-12T12:11:24.174Z,99484.75
2023-04-12T12:14:28.735Z,99482.28
2023-04-12T12:17:41.120Z,99513.69
2023-04-12T12:20:52.781Z,99513.84
2023-04-12T12:23:58.546Z,99508.00
2023-04-12T12:27:04.415Z,99503.44
2023-04-12T12:30:13.264Z,99484.47
2023-04-12T12:33:26.841Z,99504.44
2023-04-12T12:36:39.544Z,99501.91
2023-04-12T12:40:25.123Z,99515.63
2023-04-12T12:43:30.257Z,99516.22
2023-04-12T12:46:50.818Z,99505.66
2023-04-12T12:49:56.944Z,99525.19
2023-04-12T12:53:02.830Z,99527.06
2023-04-12T12:56:07.515Z,99532.38
2023-04-12T12:59:12.005Z,99519.09
2023-04-12T13:02:20.757Z,99523.34
2023-04-12T13:05:25.361Z,99506.81
2023-04-12T13:08:36.185Z,99528.66
2023-04-12T13:11:40.756Z,99527.13
2023-04-12T13:14:45.770Z,99530.28
2023-04-12T13:17:50.356Z,99487.13
2023-04-12T13:20:54.407Z,99514.97
2023-04-12T13:23:58.631Z,99525.34
2023-04-12T13:27:04.446Z,99537.63
2023-04-12T13:30:09.602Z,99537.66
2023-04-12T13:33:18.390Z,99540.41
2023-04-12T13:36:27.567Z,99535.13
2023-04-12T13:39:33.496Z,99532.41
2023-04-12T13:42:38.077Z,99522.00
2023-04-12T13:45:42.975Z,99534.34
2023-04-12T13:48:48.111Z,99542.91
2023-04-12T13:51:52.464Z,99546.34
2023-04-12T13:54:56.345Z,99517.00
2023-04-12T13:58:00.850Z,99532.78
2023-04-12T14:01:06.555Z,99530.22
2023-04-12T14:04:11.217Z,99536.38
2023-04-12T14:07:15.865Z,99536.31
2023-04-12T14:10:20.196Z,99539.84
2023-04-12T14:13:25.410Z,99544.97
2023-04-12T14:16:29.940Z,99521.66
2023-04-12T14:19:34.060Z,99559.19
2023-04-12T14:22:38.553Z,99525.94
2023-04-12T14:25:43.498Z,99565.94
2023-04-12T14:28:50.858Z,99540.59
2023-04-12T14:31:55.299Z,99531.03
2023-04-12T14:34:59.351Z,99544.94
2023-04-12T14:38:03.545Z,99550.38
2023-04-12T14:41:10.678Z,99552.25
2023-04-12T14:44:14.579Z,99557.38
2023-04-12T14:47:19.079Z,99573.81
2023-04-12T14:50:23.873Z,99565.16
2023-04-12T14:53:28.042Z,99568.84
2023-04-12T14:56:34.889Z,99556.81
2023-04-12T14:59:43.331Z,99562.13
2023-04-12T15:02:49.902Z,99562.97
2023-04-12T15:05:54.766Z,99570.03
2023-04-12T15:09:00.682Z,99565.81
2023-04-12T15:12:05.441Z,99577.09
2023-04-12T15:15:10.585Z,99574.59
2023-04-12T15:18:15.345Z,99580.47
2023-04-12T15:21:19.493Z,99563.03
2023-04-12T15:24:24.413Z,99587.25
2023-04-12T15:27:28.986Z,99552.53
2023-04-12T15:30:33.329Z,99567.41
2023-04-12T15:33:37.972Z,99554.56
2023-04-12T15:36:44.636Z,99575.34
2023-04-12T15:39:49.377Z,99583.25
2023-04-12T15:42:53.380Z,99571.94
2023-04-12T15:45:57.494Z,99584.38
2023-04-12T15:49:02.368Z,99562.56
2023-04-12T15:52:06.999Z,99518.28
2023-04-12T15:55:12.519Z,99591.34
2023-04-12T15:58:16.653Z,99579.19
2023-04-12T16:01:21.389Z,99570.66
2023-04-12T16:04:27.896Z,99556.44
2023-04-12T16:07:34.798Z,99592.25
2023-04-12T16:10:40.247Z,99579.31
2023-04-12T16:13:46.373Z,99569.81
2023-04-12T16:16:50.977Z,99567.25
2023-04-12T16:19:55.432Z,99574.34
2023-04-12T16:23:00.249Z,99561.03
2023-04-12T16:26:04.927Z,99563.66
2023-04-12T16:29:09.585Z,99526.13
2023-04-12T16:32:14.310Z,99584.53
2023-04-12T16:35:18.496Z,99587.13
2023-04-12T16:38:23.080Z,99589.78
2023-04-12T16:41:27.208Z,99562.91
2023-04-12T16:44:31.754Z,99570.78
2023-04-12T16:47:40.708Z,99582.88
2023-04-12T16:50:47.072Z,99594.09
2023-04-12T16:53:51.716Z,99587.38
2023-04-12T16:56:57.314Z,99597.75
2023-04-12T17:00:02.109Z,99584.47
2023-04-12T17:03:12.338Z,99592.59
2023-04-12T17:06:17.979Z,99590.00
2023-04-12T17:09:22.440Z,99591.78
2023-04-12T17:12:26.770Z,99597.03
2023-04-12T17:15:31.349Z,99596.22
2023-04-12T17:18:37.733Z,99581.50
2023-04-12T17:21:42.787Z,99595.38
2023-04-12T17:24:47.252Z,99597.16
2023-04-12T17:27:51.991Z,99603.25
2023-04-12T17:30:59.023Z,99596.28
2023-04-12T17:34:04.665Z,99598.03
2023-04-12T17:37:09.369Z,99578.88
2023-04-12T17:40:14.837Z,99612.03
2023-04-12T17:43:19.117Z,99616.41
2023-04-12T17:46:25.037Z,99615.56
2023-04-12T17:49:29.593Z,99625.09
2023-04-12T17:52:34.078Z,99639.16
2023-04-12T17:55:39.546Z,99640.88
2023-04-12T17:58:44.760Z,99644.38
2023-04-12T18:01:49.355Z,99615.66
2023-04-12T18:04:53.546Z,99648.69
2023-04-12T18:07:58.096Z,99641.72
2023-04-12T18:11:03.099Z,99637.38
2023-04-12T18:14:08.212Z,99652.19
2023-04-12T18:17:12.989Z,99651.34
2023-04-12T18:20:17.967Z,99662.72
2023-04-12T18:23:22.345Z,99657.47
2023-04-12T18:26:27.282Z,99660.88
2023-04-12T18:29:31.828Z,99660.03
2023-04-12T18:32:36.086Z,99648.69
2023-04-12T18:35:40.980Z,99668.72
2023-04-12T18:38:45.686Z,99665.28
2023-04-12T18:41:49.556Z,99670.50
2023-04-12T18:44:54.185Z,99659.22
2023-04-12T18:47:59.298Z,99670.47
2023-04-12T18:51:03.644Z,99673.06
2023-04-12T18:54:19.889Z,99428.63
2023-04-12T18:57:24.589Z,99673.97
2023-04-12T19:00:29.347Z,99675.72
2023-04-12T19:03:34.778Z,99677.38
2023-04-12T19:06:39.886Z,99666.97
2023-04-12T19:09:44.465Z,99674.78
2023-04-12T19:12:48.821Z,99684.31
2023-04-12T19:15:56.553Z,99687.78
2023-04-12T19:19:01.089Z,99669.47
2023-04-12T19:22:05.694Z,99685.91
2023-04-12T19:25:10.555Z,99677.19
2023-04-12T19:28:16.478Z,99680.63
2023-04-12T19:31:20.908Z,99670.31
2023-04-12T19:34:25.477Z,99632.78
2023-04-12T19:37:36.397Z,99671.06
2023-04-12T19:40:40.802Z,99679.09
2023-04-12T19:43:45.484Z,99686.03
2023-04-12T19:46:50.387Z,99685.16
2023-04-12T19:49:56.799Z,99686.97
2023-04-12T19:53:01.606Z,99691.25
2023-04-12T19:56:06.532Z,99690.41
2023-04-12T19:59:11.470Z,99683.47
2023-04-12T20:02:16.188Z,99675.63
2023-04-12T20:05:27.617Z,99694.75
2023-04-12T20:08:32.094Z,99673.09
2023-04-12T20:11:36.601Z,99679.97
2023-04-12T20:14:41.337Z,99673.91
2023-04-12T20:17:46.654Z,99656.53
2023-04-12T20:20:51.858Z,99698.34
2023-04-12T20:23:56.295Z,99660.06
2023-04-12T20:27:00.832Z,99679.16
2023-04-12T20:30:09.580Z,99686.16
2023-04-12T20:33:14.076Z,99653.13
2023-04-12T20:36:18.189Z,99700.13
2023-04-12T20:39:24.889Z,99703.56
2023-04-12T20:42:29.431Z,99703.63
2023-04-12T20:45:35.602Z,99689.66
2023-04-12T20:48:40.157Z,99707.06
2023-04-12T20:51:47.544Z,99702.69
2023-04-12T20:54:54.072Z,99696.59
2023-04-12T20:57:57.853Z,99670.41
2023-04-12T21:01:08.501Z,99723.53
2023-04-12T21:07:34.731Z,99743.41
2023-04-12T21:10:38.914Z,99754.91
2023-04-12T21:13:43.136Z,99745.19
2023-04-12T21:16:49.689Z,99740.78
2023-04-12T21:19:54.137Z,99750.34
2023-04-12T21:22:58.534Z,99768.59
2023-04-12T21:26:03.410Z,99763.28
2023-04-12T21:29:07.383Z,99749.28
2023-04-12T21:32:11.620Z,99777.16
2023-04-12T21:35:17.048Z,99778.94
2023-04-12T21:38:22.191Z,99783.28
2023-04-12T21:41:26.728Z,99766.81
2023-04-12T21:44:32.299Z,99782.41
2023-04-12T21:47:37.668Z,99729.06
2023-04-12T21:50:42.780Z,99792.28
2023-04-12T21:53:47.963Z,99802.94
2023-04-12T21:56:52.724Z,99756.81
2023-04-12T21:59:57.351Z,99811.59
2023-04-12T22:03:02.518Z,99815.38
2023-04-12T22:06:07.958Z,99816.19
2023-04-12T22:09:12.708Z,99817.78
2023-04-12T22:12:18.791Z,99817.19
2023-04-12T22:15:23.170Z,99826.81
2023-04-12T22:18:28.130Z,99811.28
2023-04-12T22:21:34.229Z,99829.09
2023-04-12T22:24:39.510Z,99793.84
2023-04-12T22:27:47.114Z,99835.47
2023-04-12T22:30:52.402Z,99830.84
2023-04-12T22:33:57.548Z,99825.34
2023-04-12T22:37:04.400Z,99833.97
2023-04-12T22:40:14.980Z,99837.69
2023-04-12T22:43:19.038Z,99840.47
2023-04-12T22:46:23.745Z,99832.78
2023-04-12T22:49:29.337Z,99837.44
2023-04-12T22:52:34.357Z,99838.22
2023-04-12T22:55:40.352Z,99837.78
2023-04-12T22:58:44.593Z,99843.00
2023-04-12T23:01:48.615Z,99838.69
2023-04-12T23:04:53.410Z,99841.69
2023-04-12T23:07:58.002Z,99826.03
2023-04-12T23:11:05.724Z,99846.34
2023-04-12T23:14:11.084Z,99825.78
2023-04-12T23:17:17.735Z,99846.63
2023-04-12T23:20:22.612Z,99832.19
2023-04-12T23:23:27.197Z,99823.44
2023-04-12T23:26:31.801Z,99835.38
2023-04-12T23:29:38.603Z,99839.09
2023-04-12T23:32:43.068Z,99849.66
2023-04-12T23:35:53.354Z,99867.34
2023-04-12T23:39:00.945Z,99845.88
2023-04-12T23:42:05.458Z,99857.03
2023-04-12T23:45:11.667Z,99860.00
2023-04-12T23:48:17.296Z,99831.38
2023-04-12T23:51:22.978Z,99865.31
2023-04-12T23:54:28.024Z,99851.91
2023-04-12T23:57:32.487Z,99863.06
